createdAt,value
2023-05-02T00:01:25.449Z,24.90
2023-05-02T00:03:52.104Z,24.90
2023-05-02T00:06:19.236Z,27.13
2023-05-02T00:08:45.928Z,29.30
2023-05-02T00:11:12.548Z,27.30
2023-05-02T00:13:39.177Z,28.13
2023-05-02T00:16:06.321Z,27.30
2023-05-02T00:18:32.988Z,26.40
2023-05-02T00:20:59.631Z,29.30
2023-05-02T00:23:26.271Z,27.00
2023-05-02T00:25:52.848Z,29.47
2023-05-02T00:28:19.423Z,30.23
2023-05-02T00:30:46.813Z,33.60
2023-05-02T00:33:15.224Z,31.80
2023-05-02T00:35:42.076Z,30.10
2023-05-02T00:38:08.724Z,34.00
2023-05-02T00:40:49.768Z,32.67
2023-05-02T00:43:19.202Z,30.17
2023-05-02T00:45:46.674Z,32.63
2023-05-02T00:48:14.080Z,31.77
2023-05-02T00:50:43.241Z,35.30
2023-05-02T00:53:10.859Z,32.50
2023-05-02T00:55:37.957Z,27.80
2023-05-02T00:58:14.378Z,31.43
2023-05-02T01:01:02.280Z,36.03
2023-05-02T01:03:47.769Z,32.80
2023-05-02T01:06:36.789Z,33.30
2023-05-02T01:09:40.972Z,31.07
2023-05-02T01:12:20.111Z,33.23
2023-05-02T01:14:52.861Z,31.50
2023-05-02T01:17:20.555Z,30.90
2023-05-02T01:19:54.905Z,30.90
2023-05-02T01:22:24.731Z,30.17
2023-05-02T01:25:20.882Z,29.23
2023-05-02T01:27:56.638Z,30.20
2023-05-02T01:30:27.061Z,26.90
2023-05-02T01:32:55.931Z,28.90
2023-05-02T01:35:24.303Z,26.73
2023-05-02T01:37:53.478Z,26.63
2023-05-02T01:40:22.880Z,27.57
2023-05-02T01:42:51.975Z,22.97
2023-05-02T01:45:21.321Z,27.93
2023-05-02T01:47:48.961Z,24.43
2023-05-02T01:50:20.344Z,21.10
2023-05-02T01:52:49.781Z,19.80
2023-05-02T01:55:18.423Z,21.73
2023-05-02T01:57:47.157Z,25.27
2023-05-02T02:00:17.711Z,21.10
2023-05-02T02:02:46.566Z,21.53
2023-05-02T02:05:14.258Z,19.73
2023-05-02T02:07:40.793Z,18.37
2023-05-02T02:10:07.941Z,19.80
2023-05-02T02:12:43.809Z,16.90
2023-05-02T02:15:21.888Z,17.70
2023-05-02T02:18:01.154Z,18.53
2023-05-02T02:20:32.512Z,16.53
2023-05-02T02:23:03.396Z,15.80
2023-05-02T02:25:30.149Z,14.67
2023-05-02T02:27:57.355Z,14.33
2023-05-02T02:30:24.005Z,14.70
2023-05-02T02:32:50.801Z,12.07
2023-05-02T02:35:17.523Z,10.63
2023-05-02T02:37:57.954Z,9.20
2023-05-02T02:40:37.354Z,10.17
2023-05-02T02:43:15.688Z,8.37
2023-05-02T02:46:03.281Z,5.00
2023-05-02T02:48:34.986Z,5.53
2023-05-02T02:51:07.293Z,7.20
2023-05-02T02:53:45.156Z,5.93
2023-05-02T02:56:16.678Z,7.80
2023-05-02T02:59:29.429Z,6.10
2023-05-02T03:02:10.010Z,8.20
2023-05-02T03:04:42.314Z,6.57
2023-05-02T03:07:09.595Z,8.40
2023-05-02T03:09:46.112Z,12.10
2023-05-02T03:12:13.487Z,12.63
2023-05-02T03:14:40.844Z,6.57
2023-05-02T03:17:12.032Z,11.93
2023-05-02T03:19:38.985Z,16.53
2023-05-02T03:22:06.134Z,15.10
2023-05-02T03:24:32.691Z,16.30
2023-05-02T03:26:59.731Z,15.40
2023-05-02T03:29:26.984Z,12.37
2023-05-02T03:31:53.601Z,16.33
2023-05-02T03:34:22.113Z,14.13
2023-05-02T03:36:48.884Z,14.73
2023-05-02T03:39:15.751Z,13.03
2023-05-02T03:41:43.940Z,14.47
2023-05-02T03:44:10.785Z,12.73
2023-05-02T03:46:37.752Z,20.07
2023-05-02T03:49:04.420Z,19.10
2023-05-02T03:51:30.989Z,16.67
2023-05-02T03:53:58.608Z,11.83
2023-05-02T03:56:25.204Z,15.73
2023-05-02T03:58:51.756Z,13.20
2023-05-02T04:01:18.496Z,14.60
2023-05-02T04:03:45.283Z,18.40
2023-05-02T04:06:13.372Z,13.90
2023-05-02T04:08:40.139Z,7.53
2023-05-02T04:11:07.319Z,12.93
2023-05-02T04:13:33.986Z,15.40
2023-05-02T04:16:00.683Z,12.70
2023-05-02T04:18:27.534Z,11.37
2023-05-02T04:20:55.503Z,11.30
2023-05-02T04:23:22.145Z,11.93
2023-05-02T04:25:53.766Z,13.73
2023-05-02T04:28:23.427Z,15.83
2023-05-02T04:30:50.406Z,16.87
2023-05-02T04:33:18.639Z,13.70
2023-05-02T04:35:45.417Z,12.37
2023-05-02T04:38:12.037Z,7.57
2023-05-02T04:40:38.889Z,10.83
2023-05-02T04:43:05.453Z,10.63
2023-05-02T04:45:32.704Z,7.33
2023-05-02T04:47:59.434Z,7.53
2023-05-02T04:50:28.373Z,13.17
2023-05-02T04:52:55.048Z,12.63
2023-05-02T04:55:21.795Z,8.30
2023-05-02T04:57:48.479Z,11.27
2023-05-02T05:00:15.644Z,10.17
2023-05-02T05:02:43.439Z,14.20
2023-05-02T05:05:10.310Z,13.30
2023-05-02T05:07:36.954Z,13.50
2023-05-02T05:10:03.996Z,16.30
2023-05-02T05:12:30.613Z,14.33
2023-05-02T05:14:57.503Z,13.90
2023-05-02T05:17:24.174Z,12.30
2023-05-02T05:19:50.874Z,14.27
2023-05-02T05:22:17.399Z,8.97
2023-05-02T05:24:51.867Z,12.93
2023-05-02T05:27:18.526Z,10.73
2023-05-02T05:29:45.203Z,9.17
2023-05-02T05:32:11.839Z,8.50
2023-05-02T05:34:38.591Z,12.10
2023-05-02T05:37:05.239Z,12.77
2023-05-02T05:39:32.781Z,12.23
2023-05-02T05:41:59.961Z,13.33
2023-05-02T05:44:26.696Z,9.53
2023-05-02T05:46:53.349Z,10.23
2023-05-02T05:49:19.934Z,11.90
2023-05-02T05:51:47.812Z,9.77
2023-05-02T05:54:14.454Z,18.27
2023-05-02T05:56:41.143Z,11.40
2023-05-02T05:59:08.077Z,14.37
2023-05-02T06:01:36.012Z,11.57
2023-05-02T06:04:06.784Z,9.27
2023-05-02T06:06:33.776Z,11.47
2023-05-02T06:09:00.980Z,17.90
2023-05-02T06:11:27.803Z,6.70
2023-05-02T06:13:54.466Z,8.37
2023-05-02T06:16:21.252Z,10.03
2023-05-02T06:18:48.013Z,12.33
2023-05-02T06:21:14.625Z,6.47
2023-05-02T06:23:41.262Z,12.30
2023-05-02T06:26:07.916Z,13.03
2023-05-02T06:28:34.582Z,6.23
2023-05-02T06:31:03.329Z,8.93
2023-05-02T06:33:30.912Z,11.83
2023-05-02T06:35:59.220Z,7.23
2023-05-02T06:38:27.297Z,9.27
2023-05-02T06:40:54.025Z,11.17
2023-05-02T06:43:20.698Z,9.63
2023-05-02T06:45:47.298Z,8.37
2023-05-02T06:48:14.151Z,9.43
2023-05-02T06:50:40.851Z,6.10
2023-05-02T06:53:07.442Z,6.60
2023-05-02T06:55:34.048Z,6.77
2023-05-02T06:58:00.978Z,7.47
2023-05-02T07:00:27.556Z,5.80
2023-05-02T07:02:54.456Z,5.70
2023-05-02T07:05:21.351Z,10.33
2023-05-02T07:07:47.886Z,6.07
2023-05-02T07:10:14.440Z,9.80
2023-05-02T07:12:41.220Z,10.60
2023-05-02T07:15:08.282Z,4.70
2023-05-02T07:17:34.941Z,7.77
2023-05-02T07:20:02.366Z,8.00
2023-05-02T07:22:29.232Z,3.93
2023-05-02T07:25:03.462Z,6.93
2023-05-02T07:27:30.301Z,8.63
2023-05-02T07:29:56.855Z,8.57
2023-05-02T07:32:26.111Z,3.33
2023-05-02T07:34:57.153Z,5.37
2023-05-02T07:37:24.029Z,4.47
2023-05-02T07:39:50.738Z,8.37
2023-05-02T07:42:17.350Z,4.17
2023-05-02T07:44:43.996Z,2.83
2023-05-02T07:47:10.852Z,2.07
2023-05-02T07:49:37.683Z,4.53
2023-05-02T07:52:04.802Z,7.03
2023-05-02T07:54:31.610Z,4.30
2023-05-02T07:57:02.423Z,5.80
2023-05-02T07:59:31.215Z,6.23
2023-05-02T08:01:58.011Z,6.37
2023-05-02T08:04:25.103Z,11.40
2023-05-02T08:06:51.946Z,8.53
2023-05-02T08:09:18.585Z,6.03
2023-05-02T08:11:45.375Z,5.40
2023-05-02T08:14:11.911Z,7.27
2023-05-02T08:16:38.975Z,4.97
2023-05-02T08:19:05.887Z,5.33
2023-05-02T08:21:32.775Z,6.67
2023-05-02T08:23:59.906Z,4.20
2023-05-02T08:26:27.446Z,7.00
2023-05-02T08:28:55.149Z,5.63
2023-05-02T08:31:22.129Z,4.83
2023-05-02T08:33:48.740Z,5.67
2023-05-02T08:36:17.048Z,5.77
2023-05-02T08:38:44.871Z,4.47
2023-05-02T08:41:20.635Z,5.47
2023-05-02T08:43:47.685Z,5.43
2023-05-02T08:46:17.469Z,4.57
2023-05-02T08:48:48.287Z,2.87
2023-05-02T08:51:16.986Z,4.87
2023-05-02T08:53:44.175Z,7.53
2023-05-02T08:56:12.744Z,7.27
2023-05-02T08:58:40.779Z,8.97
2023-05-02T09:01:19.243Z,9.70
2023-05-02T09:03:47.721Z,7.60
2023-05-02T09:06:19.552Z,5.07
2023-05-02T09:08:49.481Z,4.20
2023-05-02T09:11:17.126Z,5.73
2023-05-02T09:13:48.801Z,3.83
2023-05-02T09:16:18.102Z,12.23
2023-05-02T09:18:53.057Z,3.77
2023-05-02T09:21:22.080Z,9.67
2023-05-02T09:23:50.859Z,8.93
2023-05-02T09:26:35.303Z,4.33
2023-05-02T09:29:04.315Z,5.03
2023-05-02T09:34:14.136Z,3.60
2023-05-02T09:36:45.662Z,4.27
2023-05-02T09:39:17.484Z,5.60
2023-05-02T09:41:46.896Z,2.77
2023-05-02T09:44:20.471Z,5.00
2023-05-02T09:46:49.159Z,4.13
2023-05-02T09:49:19.618Z,4.03
2023-05-02T09:51:47.799Z,2.43
2023-05-02T09:54:36.448Z,5.97
2023-05-02T09:57:03.914Z,2.83
2023-05-02T09:59:30.765Z,12.63
2023-05-02T10:02:03.330Z,4.30
2023-05-02T10:04:32.908Z,2.63
2023-05-02T10:07:00.457Z,4.53
2023-05-02T10:09:29.998Z,3.70
2023-05-02T10:11:56.983Z,2.73
2023-05-02T10:14:27.826Z,4.17
2023-05-02T10:17:12.729Z,3.53
2023-05-02T10:19:44.408Z,3.60
2023-05-02T10:22:12.769Z,4.10
2023-05-02T10:24:40.806Z,4.47
2023-05-02T10:27:08.623Z,3.63
2023-05-02T10:29:36.366Z,4.50
2023-05-02T10:32:04.845Z,3.53
2023-05-02T10:34:33.412Z,3.10
2023-05-02T10:37:02.363Z,4.40
2023-05-02T10:39:30.026Z,5.10
2023-05-02T10:41:59.227Z,4.87
2023-05-02T10:44:40.733Z,4.53
2023-05-02T10:47:24.635Z,3.47
2023-05-02T10:49:51.786Z,3.67
2023-05-02T10:52:38.368Z,2.93
2023-05-02T10:55:19.875Z,3.13
2023-05-02T10:58:02.069Z,3.17
2023-05-02T11:00:33.975Z,1.37
2023-05-02T11:03:01.835Z,4.37
2023-05-02T11:05:28.850Z,6.23
2023-05-02T11:08:19.303Z,1.33
2023-05-02T11:10:47.434Z,4.23
2023-05-02T11:13:14.136Z,4.20
2023-05-02T11:15:41.023Z,3.73
2023-05-02T11:18:10.187Z,5.10
2023-05-02T11:20:39.695Z,7.43
2023-05-02T11:23:15.606Z,3.43
2023-05-02T11:25:44.139Z,3.80
2023-05-02T11:28:40.394Z,3.20
2023-05-02T11:31:27.019Z,3.83
2023-05-02T11:33:57.935Z,2.47
2023-05-02T11:36:32.522Z,7.43
2023-05-02T11:39:00.379Z,4.43
2023-05-02T11:41:43.062Z,3.17
2023-05-02T11:44:10.975Z,9.93
2023-05-02T11:46:39.682Z,8.80
2023-05-02T11:49:09.657Z,4.83
2023-05-02T11:51:37.555Z,4.93
2023-05-02T11:54:04.678Z,2.70
2023-05-02T11:56:31.660Z,3.27
2023-05-02T11:59:03.617Z,2.27
2023-05-02T12:01:30.694Z,4.67
2023-05-02T12:04:04.612Z,2.47
2023-05-02T12:06:31.559Z,3.30
2023-05-02T12:09:14.268Z,6.07
2023-05-02T12:11:41.443Z,5.13
2023-05-02T12:14:08.229Z,3.40
2023-05-02T12:16:35.464Z,2.47
2023-05-02T12:19:02.581Z,8.17
2023-05-02T12:21:30.232Z,3.50
2023-05-02T12:23:57.595Z,2.93
2023-05-02T12:26:27.710Z,5.50
2023-05-02T12:28:55.253Z,5.80
2023-05-02T12:31:22.902Z,4.87
2023-05-02T12:33:51.156Z,2.03
2023-05-02T12:36:19.426Z,2.97
2023-05-02T12:38:55.084Z,2.07
2023-05-02T12:41:43.914Z,6.37
2023-05-02T12:44:10.671Z,3.57
2023-05-02T12:46:37.648Z,3.17
2023-05-02T12:49:06.399Z,2.63
2023-05-02T12:51:34.622Z,5.60
2023-05-02T12:54:01.606Z,4.90
2023-05-02T12:56:32.390Z,2.40
2023-05-02T12:59:05.267Z,6.70
2023-05-02T13:01:34.553Z,7.77
2023-05-02T13:04:01.507Z,3.93
2023-05-02T13:06:28.257Z,5.80
2023-05-02T13:08:54.907Z,3.53
2023-05-02T13:11:21.654Z,1.70
2023-05-02T13:13:48.368Z,1.77
2023-05-02T13:16:15.077Z,9.10
2023-05-02T13:18:42.068Z,11.40
2023-05-02T13:21:08.754Z,3.37
2023-05-02T13:23:35.332Z,3.07
2023-05-02T13:26:01.918Z,1.83
2023-05-02T13:28:30.515Z,7.63
2023-05-02T13:30:57.161Z,4.87
2023-05-02T13:33:23.859Z,3.10
2023-05-02T13:35:50.551Z,6.20
2023-05-02T13:38:17.096Z,3.47
2023-05-02T13:40:43.808Z,7.53
2023-05-02T13:43:10.352Z,3.30
2023-05-02T13:45:37.088Z,5.90
2023-05-02T13:48:03.977Z,2.23
2023-05-02T13:50:30.704Z,1.70
2023-05-02T13:52:57.270Z,3.73
2023-05-02T13:55:23.930Z,4.70
2023-05-02T13:57:50.654Z,8.77
2023-05-02T14:00:17.944Z,3.33
2023-05-02T14:02:47.126Z,2.80
2023-05-02T14:05:14.146Z,3.03
2023-05-02T14:07:40.753Z,5.60
2023-05-02T14:10:07.997Z,4.20
2023-05-02T14:12:34.543Z,3.63
2023-05-02T14:15:01.588Z,6.83
2023-05-02T14:17:28.182Z,2.17
2023-05-02T14:19:54.885Z,3.50
2023-05-02T14:22:21.442Z,6.03
2023-05-02T14:24:48.048Z,2.10
2023-05-02T14:27:18.544Z,4.20
2023-05-02T14:29:48.806Z,3.53
2023-05-02T14:32:15.490Z,3.00
2023-05-02T14:34:42.233Z,3.50
2023-05-02T14:37:09.395Z,6.70
2023-05-02T14:39:36.998Z,3.37
2023-05-02T14:42:04.578Z,3.87
2023-05-02T14:44:31.832Z,4.07
2023-05-02T14:46:58.633Z,3.87
2023-05-02T14:49:25.641Z,2.90
2023-05-02T14:51:52.652Z,4.47
2023-05-02T14:54:20.430Z,2.13
2023-05-02T14:56:48.357Z,3.17
2023-05-02T14:59:14.975Z,3.73
2023-05-02T15:01:41.650Z,3.50
2023-05-02T15:04:08.770Z,5.17
2023-05-02T15:06:36.350Z,5.77
2023-05-02T15:09:03.607Z,5.10
2023-05-02T15:11:30.436Z,5.03
2023-05-02T15:13:59.211Z,7.27
2023-05-02T15:16:27.580Z,4.93
2023-05-02T15:18:54.384Z,3.10
2023-05-02T15:21:21.512Z,7.73
2023-05-02T15:23:48.136Z,2.17
2023-05-02T15:26:14.777Z,5.23
2023-05-02T15:28:41.601Z,4.43
2023-05-02T15:31:08.326Z,4.50
2023-05-02T15:33:34.954Z,6.28
2023-05-02T15:36:01.645Z,2.30
2023-05-02T15:38:28.306Z,3.07
2023-05-02T15:41:00.220Z,4.93
2023-05-02T15:43:27.283Z,4.53
2023-05-02T15:45:56.426Z,2.83
2023-05-02T15:48:24.256Z,5.57
2023-05-02T15:50:52.559Z,5.30
2023-05-02T15:53:22.260Z,1.90
2023-05-02T15:55:50.606Z,2.30
2023-05-02T15:58:17.828Z,5.23
2023-05-02T16:00:45.256Z,5.07
2023-05-02T16:03:15.736Z,7.50
2023-05-02T16:05:42.509Z,5.03
2023-05-02T16:08:09.565Z,4.55
2023-05-02T16:10:36.774Z,4.05
2023-05-02T16:13:03.467Z,5.20
2023-05-02T16:15:30.634Z,5.27
2023-05-02T16:17:57.518Z,4.17
2023-05-02T16:20:26.017Z,6.27
2023-05-02T16:22:52.665Z,5.43
2023-05-02T16:25:19.532Z,1.83
2023-05-02T16:27:46.076Z,5.83
2023-05-02T16:30:13.309Z,4.03
2023-05-02T16:32:40.898Z,3.40
2023-05-02T16:35:10.854Z,5.47
2023-05-02T16:37:37.577Z,4.00
2023-05-02T16:40:06.195Z,4.30
2023-05-02T16:42:33.064Z,1.97
2023-05-02T16:45:00.148Z,3.60
2023-05-02T16:47:28.124Z,8.37
2023-05-02T16:49:56.063Z,6.93
2023-05-02T16:52:23.014Z,2.00
2023-05-02T16:54:49.959Z,3.63
2023-05-02T16:57:19.911Z,3.67
2023-05-02T16:59:51.299Z,3.37
2023-05-02T17:02:21.253Z,6.27
2023-05-02T17:04:49.381Z,5.30
2023-05-02T17:07:16.471Z,2.93
2023-05-02T17:09:44.444Z,5.87
2023-05-02T17:12:12.115Z,5.73
2023-05-02T17:14:41.300Z,5.97
2023-05-02T17:17:08.337Z,3.23
2023-05-02T17:19:36.059Z,3.30
2023-05-02T17:22:04.382Z,4.57
2023-05-02T17:24:31.079Z,4.10
2023-05-02T17:26:57.805Z,3.53
2023-05-02T17:29:25.996Z,4.87
2023-05-02T17:31:52.710Z,4.13
2023-05-02T17:34:19.310Z,12.97
2023-05-02T17:36:46.517Z,11.07
2023-05-02T17:39:13.715Z,1.50
2023-05-02T17:41:40.394Z,5.73
2023-05-02T17:44:07.151Z,5.40
2023-05-02T17:46:34.007Z,3.70
2023-05-02T17:49:01.130Z,4.27
2023-05-02T17:51:28.157Z,5.40
2023-05-02T17:53:55.076Z,3.97
2023-05-02T17:56:21.893Z,1.83
2023-05-02T17:58:48.739Z,2.87
2023-05-02T18:01:15.885Z,6.77
2023-05-02T18:03:42.774Z,4.00
2023-05-02T18:06:09.575Z,5.77
2023-05-02T18:08:36.232Z,4.73
2023-05-02T18:11:03.613Z,3.83
2023-05-02T18:13:30.905Z,4.50
2023-05-02T18:16:04.874Z,4.73
2023-05-02T18:18:33.222Z,2.73
2023-05-02T18:20:59.851Z,4.80
2023-05-02T18:23:26.467Z,3.83
2023-05-02T18:25:53.060Z,2.80
2023-05-02T18:28:19.860Z,3.70
2023-05-02T18:30:46.759Z,8.33
2023-05-02T18:33:13.442Z,1.93
2023-05-02T18:35:46.903Z,5.53
2023-05-02T18:38:13.653Z,3.60
2023-05-02T18:40:40.458Z,3.63
2023-05-02T18:43:07.044Z,4.93
2023-05-02T18:45:34.978Z,4.77
2023-05-02T18:48:03.126Z,6.27
2023-05-02T18:50:29.769Z,4.47
2023-05-02T18:52:56.447Z,6.43
2023-05-02T18:55:25.277Z,4.17
2023-05-02T18:57:52.090Z,3.20
2023-05-02T19:00:20.484Z,6.30
2023-05-02T19:02:47.936Z,2.40
2023-05-02T19:05:15.219Z,4.20
2023-05-02T19:07:42.508Z,3.90
2023-05-02T19:10:11.229Z,5.77
2023-05-02T19:12:38.272Z,4.47
2023-05-02T19:15:06.840Z,6.60
2023-05-02T19:17:34.062Z,3.63
2023-05-02T19:20:00.755Z,3.20
2023-05-02T19:22:27.936Z,4.00
2023-05-02T19:24:54.681Z,2.97
2023-05-02T19:27:21.270Z,5.27
2023-05-02T19:29:47.891Z,6.17
2023-05-02T19:32:15.027Z,3.43
2023-05-02T19:34:41.738Z,3.40
2023-05-02T19:37:08.490Z,2.33
2023-05-02T19:39:37.442Z,7.03
2023-05-02T19:42:04.468Z,17.43
2023-05-02T19:44:31.082Z,5.87
2023-05-02T19:46:57.646Z,8.97
2023-05-02T19:49:24.193Z,5.13
2023-05-02T19:51:50.820Z,4.07
2023-05-02T19:54:17.394Z,10.73
2023-05-02T19:56:44.117Z,4.10
2023-05-02T19:59:10.662Z,6.27
2023-05-02T20:01:37.531Z,3.13
2023-05-02T20:04:04.322Z,2.77
2023-05-02T20:06:32.193Z,4.20
2023-05-02T20:08:58.973Z,5.40
2023-05-02T20:11:26.283Z,2.63
2023-05-02T20:13:54.211Z,2.57
2023-05-02T20:16:21.343Z,2.60
2023-05-02T20:18:48.377Z,4.60
2023-05-02T20:21:15.118Z,2.27
2023-05-02T20:23:43.659Z,4.43
2023-05-02T20:26:11.718Z,3.73
2023-05-02T20:28:38.246Z,2.77
2023-05-02T20:31:05.027Z,4.10
2023-05-02T20:33:43.544Z,3.20
2023-05-02T20:36:11.249Z,4.20
2023-05-02T20:38:42.672Z,3.90
2023-05-02T20:41:12.926Z,7.00
2023-05-02T20:43:40.535Z,3.40
2023-05-02T20:46:16.601Z,6.17
2023-05-02T20:48:43.367Z,3.37
2023-05-02T20:51:10.036Z,4.20
2023-05-02T20:53:37.739Z,3.43
2023-05-02T20:56:05.074Z,4.80
2023-05-02T20:58:31.766Z,5.70
2023-05-02T21:00:58.814Z,7.43
2023-05-02T21:03:27.464Z,2.70
2023-05-02T21:05:55.976Z,3.67
2023-05-02T21:08:23.184Z,7.27
2023-05-02T21:10:50.036Z,3.97
2023-05-02T21:13:16.577Z,5.07
2023-05-02T21:15:43.334Z,21.00
2023-05-02T21:18:09.979Z,4.53
2023-05-02T21:20:38.344Z,4.80
2023-05-02T21:23:05.026Z,5.63
2023-05-02T21:25:31.704Z,3.30
2023-05-02T21:27:58.257Z,4.87
2023-05-02T21:30:25.154Z,5.87
2023-05-02T21:32:51.821Z,4.00
2023-05-02T21:35:18.461Z,6.83
2023-05-02T21:37:45.073Z,3.20
2023-05-02T21:40:12.336Z,4.23
2023-05-02T21:42:39.043Z,5.63
2023-05-02T21:45:06.665Z,7.50
2023-05-02T21:47:33.347Z,4.63
2023-05-02T21:50:00.369Z,4.30
2023-05-02T21:52:27.411Z,4.23
2023-05-02T21:54:54.314Z,4.60
2023-05-02T21:57:21.394Z,6.43
2023-05-02T21:59:48.338Z,5.63
2023-05-02T22:02:15.037Z,7.47
2023-05-02T22:04:41.661Z,2.30
2023-05-02T22:07:08.211Z,5.77
2023-05-02T22:09:34.757Z,6.27
2023-05-02T22:12:01.430Z,7.90
2023-05-02T22:14:37.597Z,4.23
2023-05-02T22:17:10.671Z,3.47
2023-05-02T22:19:37.716Z,8.13
2023-05-02T22:22:05.605Z,3.47
2023-05-02T22:24:32.237Z,3.00
2023-05-02T22:26:58.818Z,5.43
2023-05-02T22:29:25.364Z,3.30
2023-05-02T22:31:52.406Z,3.43
2023-05-02T22:34:19.365Z,3.87
2023-05-02T22:36:46.345Z,6.17
2023-05-02T22:39:15.761Z,5.17
2023-05-02T22:41:43.092Z,4.20
2023-05-02T22:44:09.824Z,4.50
2023-05-02T22:46:38.422Z,3.47
2023-05-02T22:49:07.827Z,5.90
2023-05-02T22:51:34.455Z,4.53
2023-05-02T22:54:02.082Z,3.93
2023-05-02T22:56:28.669Z,4.70
2023-05-02T22:58:55.239Z,8.57
2023-05-02T23:01:21.966Z,2.03
2023-05-02T23:03:49.514Z,3.67
2023-05-02T23:06:16.916Z,3.53
2023-05-02T23:08:43.516Z,2.90
2023-05-02T23:11:10.159Z,5.23
2023-05-02T23:13:36.848Z,6.60
2023-05-02T23:16:04.418Z,5.67
2023-05-02T23:18:31.106Z,5.07
2023-05-02T23:20:57.857Z,5.67
2023-05-02T23:23:27.225Z,4.97
2023-05-02T23:25:53.907Z,9.50
2023-05-02T23:28:20.619Z,4.77
2023-05-02T23:30:47.758Z,5.47
2023-05-02T23:33:15.267Z,4.13
2023-05-02T23:35:42.063Z,7.77
2023-05-02T23:38:08.692Z,2.87
2023-05-02T23:40:35.685Z,4.70
2023-05-02T23:43:02.353Z,4.63
2023-05-02T23:45:28.969Z,5.13
2023-05-02T23:47:55.990Z,5.37
2023-05-02T23:50:22.633Z,7.73
2023-05-02T23:52:49.176Z,5.03
2023-05-02T23:55:15.878Z,7.30
2023-05-02T23:57:42.745Z,4.70
